sensor_id;sensor_type;location;lat;lon;timestamp;temperature;humidity
63047;DHT22;62025;39.238;9.126;2022-12-29T00:02:26;14.30;67.50
63047;DHT22;62025;39.238;9.126;2022-12-29T00:04:52;14.30;67.60
63047;DHT22;62025;39.238;9.126;2022-12-29T00:07:18;14.30;67.70
63047;DHT22;62025;39.238;9.126;2022-12-29T00:09:44;14.30;67.70
63047;DHT22;62025;39.238;9.126;2022-12-29T00:12:10;14.20;68.00
63047;DHT22;62025;39.238;9.126;2022-12-29T00:14:36;14.20;68.20
63047;DHT22;62025;39.238;9.126;2022-12-29T00:17:20;14.20;68.20
63047;DHT22;62025;39.238;9.126;2022-12-29T00:19:46;14.20;68.40
63047;DHT22;62025;39.238;9.126;2022-12-29T00:22:31;14.20;68.50
63047;DHT22;62025;39.238;9.126;2022-12-29T00:25:15;14.10;68.70
63047;DHT22;62025;39.238;9.126;2022-12-29T00:28:00;14.10;68.60
63047;DHT22;62025;39.238;9.126;2022-12-29T00:30:44;14.10;68.40
63047;DHT22;62025;39.238;9.126;2022-12-29T00:33:30;14.10;68.40
63047;DHT22;62025;39.238;9.126;2022-12-29T00:36:31;14.20;68.00
63047;DHT22;62025;39.238;9.126;2022-12-29T00:39:18;14.20;67.70
63047;DHT22;62025;39.238;9.126;2022-12-29T00:42:04;14.10;67.50
63047;DHT22;62025;39.238;9.126;2022-12-29T00:45:06;14.00;67.70
63047;DHT22;62025;39.238;9.126;2022-12-29T00:47:32;13.90;67.70
63047;DHT22;62025;39.238;9.126;2022-12-29T00:49:57;13.90;67.90
63047;DHT22;62025;39.238;9.126;2022-12-29T00:52:23;13.90;67.50
63047;DHT22;62025;39.238;9.126;2022-12-29T00:54:49;13.90;67.40
63047;DHT22;62025;39.238;9.126;2022-12-29T00:57:16;13.90;67.20
63047;DHT22;62025;39.238;9.126;2022-12-29T00:59:42;13.90;67.00
63047;DHT22;62025;39.238;9.126;2022-12-29T01:02:09;13.90;67.00
63047;DHT22;62025;39.238;9.126;2022-12-29T01:04:35;13.90;67.10
63047;DHT22;62025;39.238;9.126;2022-12-29T01:07:01;13.90;67.20
63047;DHT22;62025;39.238;9.126;2022-12-29T01:09:27;13.80;67.20
63047;DHT22;62025;39.238;9.126;2022-12-29T01:12:12;13.80;67.20
63047;DHT22;62025;39.238;9.126;2022-12-29T01:14:38;13.80;67.20
63047;DHT22;62025;39.238;9.126;2022-12-29T01:17:05;13.80;67.30
63047;DHT22;62025;39.238;9.126;2022-12-29T01:19:32;13.80;67.30
63047;DHT22;62025;39.238;9.126;2022-12-29T01:21:58;13.80;67.30
63047;DHT22;62025;39.238;9.126;2022-12-29T01:24:24;13.80;67.30
63047;DHT22;62025;39.238;9.126;2022-12-29T01:26:51;13.80;67.40
63047;DHT22;62025;39.238;9.126;2022-12-29T01:29:17;13.80;67.60
63047;DHT22;62025;39.238;9.126;2022-12-29T01:31:45;13.80;67.60
63047;DHT22;62025;39.238;9.126;2022-12-29T01:34:11;13.80;67.60
63047;DHT22;62025;39.238;9.126;2022-12-29T01:36:37;13.80;67.40
63047;DHT22;62025;39.238;9.126;2022-12-29T01:39:03;13.70;67.40
63047;DHT22;62025;39.238;9.126;2022-12-29T01:41:29;13.70;67.20
63047;DHT22;62025;39.238;9.126;2022-12-29T01:43:58;13.70;67.20
63047;DHT22;62025;39.238;9.126;2022-12-29T01:46:36;13.70;67.20
63047;DHT22;62025;39.238;9.126;2022-12-29T01:54:29;13.80;67.20
63047;DHT22;62025;39.238;9.126;2022-12-29T01:57:01;13.70;67.30
63047;DHT22;62025;39.238;9.126;2022-12-29T01:59:34;13.60;67.40
63047;DHT22;62025;39.238;9.126;2022-12-29T02:02:07;13.60;67.60
63047;DHT22;62025;39.238;9.126;2022-12-29T02:04:33;13.60;67.50
63047;DHT22;62025;39.238;9.126;2022-12-29T02:07:07;13.60;67.40
63047;DHT22;62025;39.238;9.126;2022-12-29T02:09:36;13.70;67.40
63047;DHT22;62025;39.238;9.126;2022-12-29T02:12:02;13.60;67.30
63047;DHT22;62025;39.238;9.126;2022-12-29T02:14:30;13.60;67.40
63047;DHT22;62025;39.238;9.126;2022-12-29T02:17:14;13.50;67.40
63047;DHT22;62025;39.238;9.126;2022-12-29T02:40:53;13.40;67.80
63047;DHT22;62025;39.238;9.126;2022-12-29T02:43:39;13.30;67.80
63047;DHT22;62025;39.238;9.126;2022-12-29T02:46:10;13.40;67.90
63047;DHT22;62025;39.238;9.126;2022-12-29T02:51:46;13.40;67.90
63047;DHT22;62025;39.238;9.126;2022-12-29T02:54:31;13.40;67.90
63047;DHT22;62025;39.238;9.126;2022-12-29T02:57:11;13.50;67.60
63047;DHT22;62025;39.238;9.126;2022-12-29T02:59:43;13.40;67.60
63047;DHT22;62025;39.238;9.126;2022-12-29T03:08:58;13.30;68.10
63047;DHT22;62025;39.238;9.126;2022-12-29T03:11:36;13.30;67.60
63047;DHT22;62025;39.238;9.126;2022-12-29T03:15:05;13.30;67.50
63047;DHT22;62025;39.238;9.126;2022-12-29T03:18:10;13.20;67.10
63047;DHT22;62025;39.238;9.126;2022-12-29T03:20:52;13.30;66.70
63047;DHT22;62025;39.238;9.126;2022-12-29T03:23:22;13.30;66.40
63047;DHT22;62025;39.238;9.126;2022-12-29T03:25:56;13.30;66.10
63047;DHT22;62025;39.238;9.126;2022-12-29T03:28:29;13.10;66.10
63047;DHT22;62025;39.238;9.126;2022-12-29T03:30:58;13.00;66.30
63047;DHT22;62025;39.238;9.126;2022-12-29T03:33:28;13.00;66.10
63047;DHT22;62025;39.238;9.126;2022-12-29T03:36:02;13.00;66.10
63047;DHT22;62025;39.238;9.126;2022-12-29T03:38:48;13.10;66.00
63047;DHT22;62025;39.238;9.126;2022-12-29T03:41:21;13.10;66.00
63047;DHT22;62025;39.238;9.126;2022-12-29T03:43:51;13.00;66.20
63047;DHT22;62025;39.238;9.126;2022-12-29T03:46:17;12.90;66.10
63047;DHT22;62025;39.238;9.126;2022-12-29T03:48:43;12.90;65.90
63047;DHT22;62025;39.238;9.126;2022-12-29T03:51:09;12.90;66.00
63047;DHT22;62025;39.238;9.126;2022-12-29T03:53:35;12.90;65.80
63047;DHT22;62025;39.238;9.126;2022-12-29T03:56:02;13.00;65.60
63047;DHT22;62025;39.238;9.126;2022-12-29T03:58:29;13.00;65.50
63047;DHT22;62025;39.238;9.126;2022-12-29T04:01:04;12.90;65.50
63047;DHT22;62025;39.238;9.126;2022-12-29T04:03:33;12.80;65.50
63047;DHT22;62025;39.238;9.126;2022-12-29T04:06:00;12.90;65.60
63047;DHT22;62025;39.238;9.126;2022-12-29T04:08:27;12.90;65.40
63047;DHT22;62025;39.238;9.126;2022-12-29T04:10:53;12.90;65.40
63047;DHT22;62025;39.238;9.126;2022-12-29T04:13:22;12.90;65.40
63047;DHT22;62025;39.238;9.126;2022-12-29T04:15:49;12.80;65.70
63047;DHT22;62025;39.238;9.126;2022-12-29T04:18:14;12.80;65.80
63047;DHT22;62025;39.238;9.126;2022-12-29T04:20:44;12.90;65.60
63047;DHT22;62025;39.238;9.126;2022-12-29T04:23:25;12.90;65.40
63047;DHT22;62025;39.238;9.126;2022-12-29T04:25:52;12.90;65.50
63047;DHT22;62025;39.238;9.126;2022-12-29T04:28:19;12.80;65.50
63047;DHT22;62025;39.238;9.126;2022-12-29T04:31:14;12.90;65.60
63047;DHT22;62025;39.238;9.126;2022-12-29T04:33:42;12.90;65.40
63047;DHT22;62025;39.238;9.126;2022-12-29T04:36:08;12.90;65.30
63047;DHT22;62025;39.238;9.126;2022-12-29T04:38:36;12.90;65.20
63047;DHT22;62025;39.238;9.126;2022-12-29T04:41:04;12.80;65.10
63047;DHT22;62025;39.238;9.126;2022-12-29T04:43:30;12.90;65.00
63047;DHT22;62025;39.238;9.126;2022-12-29T04:46:20;12.90;65.00
63047;DHT22;62025;39.238;9.126;2022-12-29T04:48:53;13.00;64.80
63047;DHT22;62025;39.238;9.126;2022-12-29T04:51:38;12.90;64.80
63047;DHT22;62025;39.238;9.126;2022-12-29T04:54:05;12.90;65.00
63047;DHT22;62025;39.238;9.126;2022-12-29T04:56:32;12.90;64.90
63047;DHT22;62025;39.238;9.126;2022-12-29T04:58:58;12.90;64.70
63047;DHT22;62025;39.238;9.126;2022-12-29T05:01:24;12.80;65.00
63047;DHT22;62025;39.238;9.126;2022-12-29T05:03:50;12.90;64.80
63047;DHT22;62025;39.238;9.126;2022-12-29T05:06:17;12.90;64.70
63047;DHT22;62025;39.238;9.126;2022-12-29T05:08:43;12.80;64.80
63047;DHT22;62025;39.238;9.126;2022-12-29T05:11:10;12.80;64.90
63047;DHT22;62025;39.238;9.126;2022-12-29T05:13:36;12.80;65.00
63047;DHT22;62025;39.238;9.126;2022-12-29T05:16:03;12.80;65.20
63047;DHT22;62025;39.238;9.126;2022-12-29T05:18:29;12.80;65.10
63047;DHT22;62025;39.238;9.126;2022-12-29T05:20:57;12.80;65.00
63047;DHT22;62025;39.238;9.126;2022-12-29T05:23:23;12.80;65.10
63047;DHT22;62025;39.238;9.126;2022-12-29T05:25:55;12.70;65.20
63047;DHT22;62025;39.238;9.126;2022-12-29T05:28:48;12.70;65.40
63047;DHT22;62025;39.238;9.126;2022-12-29T05:31:18;12.70;65.20
63047;DHT22;62025;39.238;9.126;2022-12-29T05:33:44;12.60;65.30
63047;DHT22;62025;39.238;9.126;2022-12-29T05:36:11;12.60;65.50
63047;DHT22;62025;39.238;9.126;2022-12-29T05:38:42;12.60;65.70
63047;DHT22;62025;39.238;9.126;2022-12-29T05:41:08;12.50;65.90
63047;DHT22;62025;39.238;9.126;2022-12-29T05:43:52;12.50;66.00
63047;DHT22;62025;39.238;9.126;2022-12-29T05:46:41;12.40;65.90
63047;DHT22;62025;39.238;9.126;2022-12-29T05:49:31;12.30;66.30
63047;DHT22;62025;39.238;9.126;2022-12-29T05:52:05;12.40;66.30
63047;DHT22;62025;39.238;9.126;2022-12-29T05:54:32;12.40;66.20
63047;DHT22;62025;39.238;9.126;2022-12-29T05:56:58;12.40;66.20
63047;DHT22;62025;39.238;9.126;2022-12-29T05:59:24;12.50;66.30
63047;DHT22;62025;39.238;9.126;2022-12-29T06:01:52;12.50;66.20
63047;DHT22;62025;39.238;9.126;2022-12-29T06:04:17;12.50;66.20
63047;DHT22;62025;39.238;9.126;2022-12-29T06:06:43;12.50;66.30
63047;DHT22;62025;39.238;9.126;2022-12-29T06:09:18;12.50;66.40
63047;DHT22;62025;39.238;9.126;2022-12-29T06:11:44;12.50;66.30
63047;DHT22;62025;39.238;9.126;2022-12-29T06:14:10;12.50;66.30
63047;DHT22;62025;39.238;9.126;2022-12-29T06:16:36;12.50;66.40
63047;DHT22;62025;39.238;9.126;2022-12-29T06:19:05;12.50;66.40
63047;DHT22;62025;39.238;9.126;2022-12-29T06:21:31;12.50;66.50
63047;DHT22;62025;39.238;9.126;2022-12-29T06:23:59;12.50;66.50
63047;DHT22;62025;39.238;9.126;2022-12-29T06:26:26;12.50;66.60
63047;DHT22;62025;39.238;9.126;2022-12-29T06:28:51;12.50;66.70
63047;DHT22;62025;39.238;9.126;2022-12-29T06:31:17;12.50;66.80
63047;DHT22;62025;39.238;9.126;2022-12-29T06:33:44;12.50;66.90
63047;DHT22;62025;39.238;9.126;2022-12-29T06:36:10;12.60;66.80
63047;DHT22;62025;39.238;9.126;2022-12-29T06:38:36;12.60;67.00
63047;DHT22;62025;39.238;9.126;2022-12-29T06:41:02;12.50;67.10
63047;DHT22;62025;39.238;9.126;2022-12-29T06:43:34;12.50;67.20
63047;DHT22;62025;39.238;9.126;2022-12-29T06:46:07;12.50;67.30
63047;DHT22;62025;39.238;9.126;2022-12-29T06:48:33;12.50;67.20
63047;DHT22;62025;39.238;9.126;2022-12-29T06:50:59;12.40;67.30
63047;DHT22;62025;39.238;9.126;2022-12-29T06:53:25;12.40;67.50
63047;DHT22;62025;39.238;9.126;2022-12-29T06:55:51;12.40;67.40
63047;DHT22;62025;39.238;9.126;2022-12-29T06:58:17;12.50;67.20
63047;DHT22;62025;39.238;9.126;2022-12-29T07:00:43;12.40;67.30
63047;DHT22;62025;39.238;9.126;2022-12-29T07:03:09;12.70;66.80
63047;DHT22;62025;39.238;9.126;2022-12-29T07:05:35;12.70;66.60
63047;DHT22;62025;39.238;9.126;2022-12-29T07:08:01;12.40;67.30
63047;DHT22;62025;39.238;9.126;2022-12-29T07:10:27;12.30;67.50
63047;DHT22;62025;39.238;9.126;2022-12-29T07:12:53;12.40;67.60
63047;DHT22;62025;39.238;9.126;2022-12-29T07:15:19;12.50;67.10
63047;DHT22;62025;39.238;9.126;2022-12-29T07:17:45;12.70;66.80
63047;DHT22;62025;39.238;9.126;2022-12-29T07:20:11;12.80;66.50
63047;DHT22;62025;39.238;9.126;2022-12-29T07:22:36;12.80;66.30
63047;DHT22;62025;39.238;9.126;2022-12-29T07:25:04;12.90;66.10
63047;DHT22;62025;39.238;9.126;2022-12-29T07:27:30;13.00;65.80
63047;DHT22;62025;39.238;9.126;2022-12-29T07:29:56;13.20;65.40
63047;DHT22;62025;39.238;9.126;2022-12-29T07:32:22;13.20;65.50
63047;DHT22;62025;39.238;9.126;2022-12-29T07:34:48;13.50;64.90
63047;DHT22;62025;39.238;9.126;2022-12-29T07:37:17;13.80;63.90
63047;DHT22;62025;39.238;9.126;2022-12-29T07:39:43;14.10;63.30
63047;DHT22;62025;39.238;9.126;2022-12-29T07:42:09;14.30;62.30
63047;DHT22;62025;39.238;9.126;2022-12-29T07:44:43;14.30;62.00
63047;DHT22;62025;39.238;9.126;2022-12-29T07:47:26;13.90;63.10
63047;DHT22;62025;39.238;9.126;2022-12-29T07:49:52;14.40;62.30
63047;DHT22;62025;39.238;9.126;2022-12-29T07:52:18;14.70;61.70
63047;DHT22;62025;39.238;9.126;2022-12-29T07:54:44;14.80;61.20
63047;DHT22;62025;39.238;9.126;2022-12-29T07:57:11;15.00;60.70
63047;DHT22;62025;39.238;9.126;2022-12-29T07:59:36;15.30;60.30
63047;DHT22;62025;39.238;9.126;2022-12-29T08:02:02;15.60;59.60
63047;DHT22;62025;39.238;9.126;2022-12-29T08:04:28;15.70;59.20
63047;DHT22;62025;39.238;9.126;2022-12-29T08:06:54;15.80;59.10
63047;DHT22;62025;39.238;9.126;2022-12-29T08:09:20;15.80;59.00
63047;DHT22;62025;39.238;9.126;2022-12-29T08:11:46;16.00;58.90
63047;DHT22;62025;39.238;9.126;2022-12-29T08:14:12;16.10;58.60
63047;DHT22;62025;39.238;9.126;2022-12-29T08:16:38;15.60;59.50
63047;DHT22;62025;39.238;9.126;2022-12-29T08:19:04;15.90;59.40
63047;DHT22;62025;39.238;9.126;2022-12-29T08:21:30;16.40;58.40
63047;DHT22;62025;39.238;9.126;2022-12-29T08:23:56;16.70;57.50
63047;DHT22;62025;39.238;9.126;2022-12-29T08:26:22;16.80;57.10
63047;DHT22;62025;39.238;9.126;2022-12-29T08:28:48;16.80;57.40
63047;DHT22;62025;39.238;9.126;2022-12-29T08:31:14;17.00;56.80
63047;DHT22;62025;39.238;9.126;2022-12-29T08:33:40;17.10;56.70
63047;DHT22;62025;39.238;9.126;2022-12-29T08:36:07;17.50;55.50
63047;DHT22;62025;39.238;9.126;2022-12-29T08:38:33;17.40;55.30
63047;DHT22;62025;39.238;9.126;2022-12-29T08:40:59;17.60;54.00
63047;DHT22;62025;39.238;9.126;2022-12-29T08:43:29;17.30;53.80
63047;DHT22;62025;39.238;9.126;2022-12-29T08:45:56;17.60;53.80
63047;DHT22;62025;39.238;9.126;2022-12-29T08:48:23;18.10;52.70
63047;DHT22;62025;39.238;9.126;2022-12-29T08:50:50;18.30;52.40
63047;DHT22;62025;39.238;9.126;2022-12-29T08:53:16;18.60;52.00
63047;DHT22;62025;39.238;9.126;2022-12-29T08:55:45;18.80;51.60
63047;DHT22;62025;39.238;9.126;2022-12-29T08:58:13;18.80;51.60
63047;DHT22;62025;39.238;9.126;2022-12-29T09:00:42;18.70;51.90
63047;DHT22;62025;39.238;9.126;2022-12-29T09:03:09;18.80;51.60
63047;DHT22;62025;39.238;9.126;2022-12-29T09:05:34;18.80;51.80
63047;DHT22;62025;39.238;9.126;2022-12-29T09:08:00;19.10;50.90
63047;DHT22;62025;39.238;9.126;2022-12-29T09:10:26;19.30;51.10
63047;DHT22;62025;39.238;9.126;2022-12-29T09:12:52;19.40;51.00
63047;DHT22;62025;39.238;9.126;2022-12-29T09:15:18;19.60;51.10
63047;DHT22;62025;39.238;9.126;2022-12-29T09:17:44;19.80;49.50
63047;DHT22;62025;39.238;9.126;2022-12-29T09:20:16;19.50;50.20
63047;DHT22;62025;39.238;9.126;2022-12-29T09:22:45;19.60;50.40
63047;DHT22;62025;39.238;9.126;2022-12-29T09:25:11;19.90;49.90
63047;DHT22;62025;39.238;9.126;2022-12-29T09:27:37;19.90;50.30
63047;DHT22;62025;39.238;9.126;2022-12-29T09:30:05;20.00;50.40
63047;DHT22;62025;39.238;9.126;2022-12-29T09:32:33;19.80;51.20
63047;DHT22;62025;39.238;9.126;2022-12-29T09:34:59;19.70;51.40
63047;DHT22;62025;39.238;9.126;2022-12-29T09:37:25;19.80;52.10
63047;DHT22;62025;39.238;9.126;2022-12-29T09:39:51;19.90;52.40
63047;DHT22;62025;39.238;9.126;2022-12-29T09:42:32;20.10;52.20
63047;DHT22;62025;39.238;9.126;2022-12-29T09:45:18;20.00;53.30
63047;DHT22;62025;39.238;9.126;2022-12-29T09:47:51;20.20;54.00
63047;DHT22;62025;39.238;9.126;2022-12-29T09:50:24;20.30;54.30
63047;DHT22;62025;39.238;9.126;2022-12-29T09:55:51;20.30;56.20
63047;DHT22;62025;39.238;9.126;2022-12-29T09:58:30;20.20;57.00
63047;DHT22;62025;39.238;9.126;2022-12-29T10:01:07;20.40;57.30
63047;DHT22;62025;39.238;9.126;2022-12-29T10:03:50;20.40;57.80
63047;DHT22;62025;39.238;9.126;2022-12-29T10:06:26;20.50;57.80
63047;DHT22;62025;39.238;9.126;2022-12-29T10:15:04;20.40;58.90
63047;DHT22;62025;39.238;9.126;2022-12-29T10:18:03;20.50;58.80
63047;DHT22;62025;39.238;9.126;2022-12-29T10:20:50;20.50;59.00
63047;DHT22;62025;39.238;9.126;2022-12-29T10:23:35;20.40;59.00
63047;DHT22;62025;39.238;9.126;2022-12-29T10:26:15;20.70;58.80
63047;DHT22;62025;39.238;9.126;2022-12-29T10:29:11;20.40;59.20
63047;DHT22;62025;39.238;9.126;2022-12-29T10:31:54;20.40;59.60
63047;DHT22;62025;39.238;9.126;2022-12-29T10:37:13;20.20;61.00
63047;DHT22;62025;39.238;9.126;2022-12-29T10:39:54;20.00;61.40
63047;DHT22;62025;39.238;9.126;2022-12-29T10:42:34;20.10;61.60
63047;DHT22;62025;39.238;9.126;2022-12-29T10:45:04;20.10;61.50
63047;DHT22;62025;39.238;9.126;2022-12-29T10:47:35;20.10;61.60
63047;DHT22;62025;39.238;9.126;2022-12-29T10:50:05;19.90;62.10
63047;DHT22;62025;39.238;9.126;2022-12-29T10:52:33;19.80;62.90
63047;DHT22;62025;39.238;9.126;2022-12-29T10:55:03;19.60;63.80
63047;DHT22;62025;39.238;9.126;2022-12-29T10:57:43;19.40;64.50
63047;DHT22;62025;39.238;9.126;2022-12-29T11:00:19;19.30;64.90
63047;DHT22;62025;39.238;9.126;2022-12-29T11:05:46;19.30;66.10
63047;DHT22;62025;39.238;9.126;2022-12-29T11:08:21;19.30;66.60
63047;DHT22;62025;39.238;9.126;2022-12-29T11:11:01;19.00;67.10
63047;DHT22;62025;39.238;9.126;2022-12-29T11:13:32;18.80;68.20
63047;DHT22;62025;39.238;9.126;2022-12-29T11:15:59;18.80;68.30
63047;DHT22;62025;39.238;9.126;2022-12-29T11:18:35;18.60;68.90
63047;DHT22;62025;39.238;9.126;2022-12-29T11:21:38;18.60;69.20
63047;DHT22;62025;39.238;9.126;2022-12-29T11:26:47;18.40;70.20
63047;DHT22;62025;39.238;9.126;2022-12-29T11:29:20;18.40;70.20
63047;DHT22;62025;39.238;9.126;2022-12-29T11:32:18;18.30;70.60
63047;DHT22;62025;39.238;9.126;2022-12-29T11:34:45;17.90;72.30
63047;DHT22;62025;39.238;9.126;2022-12-29T11:37:12;18.00;72.20
63047;DHT22;62025;39.238;9.126;2022-12-29T11:40:03;18.00;72.10
63047;DHT22;62025;39.238;9.126;2022-12-29T11:42:47;18.10;71.90
63047;DHT22;62025;39.238;9.126;2022-12-29T11:47:59;17.90;72.70
63047;DHT22;62025;39.238;9.126;2022-12-29T11:50:32;18.00;72.70
63047;DHT22;62025;39.238;9.126;2022-12-29T11:53:03;17.80;73.70
63047;DHT22;62025;39.238;9.126;2022-12-29T11:55:32;17.80;73.80
63047;DHT22;62025;39.238;9.126;2022-12-29T11:58:01;17.80;74.10
63047;DHT22;62025;39.238;9.126;2022-12-29T12:00:31;17.80;74.00
63047;DHT22;62025;39.238;9.126;2022-12-29T12:03:13;17.80;74.30
63047;DHT22;62025;39.238;9.126;2022-12-29T12:06:00;17.70;75.00
63047;DHT22;62025;39.238;9.126;2022-12-29T12:17:22;17.50;75.40
63047;DHT22;62025;39.238;9.126;2022-12-29T12:22:47;17.30;76.50
63047;DHT22;62025;39.238;9.126;2022-12-29T12:25:37;17.40;76.40
63047;DHT22;62025;39.238;9.126;2022-12-29T12:28:45;17.50;76.00
63047;DHT22;62025;39.238;9.126;2022-12-29T12:31:26;17.40;76.70
63047;DHT22;62025;39.238;9.126;2022-12-29T12:34:04;17.20;77.50
63047;DHT22;62025;39.238;9.126;2022-12-29T12:36:49;17.30;77.10
63047;DHT22;62025;39.238;9.126;2022-12-29T12:59:39;17.20;77.60
63047;DHT22;62025;39.238;9.126;2022-12-29T13:08:24;17.20;77.80
63047;DHT22;62025;39.238;9.126;2022-12-29T13:22:15;17.20;78.20
63047;DHT22;62025;39.238;9.126;2022-12-29T13:25:56;17.20;78.30
63047;DHT22;62025;39.238;9.126;2022-12-29T13:35:24;17.10;78.50
63047;DHT22;62025;39.238;9.126;2022-12-29T13:40:49;17.30;78.50
63047;DHT22;62025;39.238;9.126;2022-12-29T13:43:18;17.30;78.20
63047;DHT22;62025;39.238;9.126;2022-12-29T13:45:50;17.30;78.40
63047;DHT22;62025;39.238;9.126;2022-12-29T13:48:37;17.30;78.70
63047;DHT22;62025;39.238;9.126;2022-12-29T13:51:23;17.30;78.70
63047;DHT22;62025;39.238;9.126;2022-12-29T13:56:56;17.10;79.20
63047;DHT22;62025;39.238;9.126;2022-12-29T14:02:21;17.00;79.50
63047;DHT22;62025;39.238;9.126;2022-12-29T14:07:46;17.10;79.50
63047;DHT22;62025;39.238;9.126;2022-12-29T14:10:29;17.00;79.60
63047;DHT22;62025;39.238;9.126;2022-12-29T14:13:06;17.10;79.50
63047;DHT22;62025;39.238;9.126;2022-12-29T14:15:42;17.10;79.50
63047;DHT22;62025;39.238;9.126;2022-12-29T14:18:19;17.10;79.60
63047;DHT22;62025;39.238;9.126;2022-12-29T14:28:36;17.00;80.10
63047;DHT22;62025;39.238;9.126;2022-12-29T14:36:40;17.00;80.20
63047;DHT22;62025;39.238;9.126;2022-12-29T14:47:35;16.90;80.70
63047;DHT22;62025;39.238;9.126;2022-12-29T14:53:10;16.90;81.00
63047;DHT22;62025;39.238;9.126;2022-12-29T14:56:04;16.90;80.80
63047;DHT22;62025;39.238;9.126;2022-12-29T14:58:53;16.90;81.10
63047;DHT22;62025;39.238;9.126;2022-12-29T15:01:40;16.90;81.30
63047;DHT22;62025;39.238;9.126;2022-12-29T15:04:19;16.80;80.80
63047;DHT22;62025;39.238;9.126;2022-12-29T15:06:49;16.70;81.50
63047;DHT22;62025;39.238;9.126;2022-12-29T15:09:47;16.80;81.50
63047;DHT22;62025;39.238;9.126;2022-12-29T15:14:53;16.60;81.70
63047;DHT22;62025;39.238;9.126;2022-12-29T15:17:33;16.60;82.20
63047;DHT22;62025;39.238;9.126;2022-12-29T15:22:57;16.70;82.00
63047;DHT22;62025;39.238;9.126;2022-12-29T15:25:24;16.70;82.30
63047;DHT22;62025;39.238;9.126;2022-12-29T15:27:54;16.60;82.50
63047;DHT22;62025;39.238;9.126;2022-12-29T15:30:22;16.60;82.40
63047;DHT22;62025;39.238;9.126;2022-12-29T15:32:49;16.60;82.60
63047;DHT22;62025;39.238;9.126;2022-12-29T15:37:47;16.80;81.90
63047;DHT22;62025;39.238;9.126;2022-12-29T15:40:30;16.80;81.80
63047;DHT22;62025;39.238;9.126;2022-12-29T15:45:41;16.70;82.30
63047;DHT22;62025;39.238;9.126;2022-12-29T15:48:16;16.70;82.20
63047;DHT22;62025;39.238;9.126;2022-12-29T15:50:44;16.60;82.20
63047;DHT22;62025;39.238;9.126;2022-12-29T15:53:18;16.70;82.00
63047;DHT22;62025;39.238;9.126;2022-12-29T15:55:50;16.70;82.10
63047;DHT22;62025;39.238;9.126;2022-12-29T15:58:25;16.70;82.10
63047;DHT22;62025;39.238;9.126;2022-12-29T16:01:00;16.70;81.90
63047;DHT22;62025;39.238;9.126;2022-12-29T16:03:36;16.70;82.10
63047;DHT22;62025;39.238;9.126;2022-12-29T16:06:23;16.70;82.00
63047;DHT22;62025;39.238;9.126;2022-12-29T16:11:37;16.70;82.20
63047;DHT22;62025;39.238;9.126;2022-12-29T16:14:21;16.70;81.80
63047;DHT22;62025;39.238;9.126;2022-12-29T16:16:50;16.80;81.70
63047;DHT22;62025;39.238;9.126;2022-12-29T16:19:33;16.70;81.90
63047;DHT22;62025;39.238;9.126;2022-12-29T16:22:03;16.80;81.90
63047;DHT22;62025;39.238;9.126;2022-12-29T16:24:38;16.80;81.40
63047;DHT22;62025;39.238;9.126;2022-12-29T16:29:36;16.30;82.00
63047;DHT22;62025;39.238;9.126;2022-12-29T16:32:02;16.20;82.20
63047;DHT22;62025;39.238;9.126;2022-12-29T16:34:48;16.10;82.40
63047;DHT22;62025;39.238;9.126;2022-12-29T16:37:34;16.10;83.10
63047;DHT22;62025;39.238;9.126;2022-12-29T16:50:30;16.50;82.00
63047;DHT22;62025;39.238;9.126;2022-12-29T16:52:57;16.50;82.20
63047;DHT22;62025;39.238;9.126;2022-12-29T16:55:23;16.60;82.10
63047;DHT22;62025;39.238;9.126;2022-12-29T16:57:52;16.50;82.10
63047;DHT22;62025;39.238;9.126;2022-12-29T17:00:27;16.50;82.10
63047;DHT22;62025;39.238;9.126;2022-12-29T17:02:57;16.50;82.10
63047;DHT22;62025;39.238;9.126;2022-12-29T17:05:24;16.40;82.30
63047;DHT22;62025;39.238;9.126;2022-12-29T17:07:50;16.40;82.20
63047;DHT22;62025;39.238;9.126;2022-12-29T17:10:20;16.50;82.20
63047;DHT22;62025;39.238;9.126;2022-12-29T17:13:07;16.40;82.00
63047;DHT22;62025;39.238;9.126;2022-12-29T17:15:33;16.30;82.20
63047;DHT22;62025;39.238;9.126;2022-12-29T17:18:00;16.40;82.30
63047;DHT22;62025;39.238;9.126;2022-12-29T17:20:28;16.40;82.10
63047;DHT22;62025;39.238;9.126;2022-12-29T17:22:57;16.30;82.50
63047;DHT22;62025;39.238;9.126;2022-12-29T17:25:28;16.30;82.50
63047;DHT22;62025;39.238;9.126;2022-12-29T17:28:00;16.30;82.50
63047;DHT22;62025;39.238;9.126;2022-12-29T17:30:33;16.40;82.20
63047;DHT22;62025;39.238;9.126;2022-12-29T17:33:06;16.40;81.90
63047;DHT22;62025;39.238;9.126;2022-12-29T17:35:34;16.50;81.90
63047;DHT22;62025;39.238;9.126;2022-12-29T17:38:00;16.50;82.10
63047;DHT22;62025;39.238;9.126;2022-12-29T17:40:29;16.50;82.30
63047;DHT22;62025;39.238;9.126;2022-12-29T17:42:58;16.40;82.60
63047;DHT22;62025;39.238;9.126;2022-12-29T17:45:25;16.40;82.80
63047;DHT22;62025;39.238;9.126;2022-12-29T17:47:53;16.30;83.00
63047;DHT22;62025;39.238;9.126;2022-12-29T17:50:23;16.30;83.20
63047;DHT22;62025;39.238;9.126;2022-12-29T17:52:55;16.20;83.20
63047;DHT22;62025;39.238;9.126;2022-12-29T17:55:24;16.20;83.00
63047;DHT22;62025;39.238;9.126;2022-12-29T17:57:51;16.10;82.90
63047;DHT22;62025;39.238;9.126;2022-12-29T18:00:24;16.00;82.70
63047;DHT22;62025;39.238;9.126;2022-12-29T18:02:53;16.20;82.20
63047;DHT22;62025;39.238;9.126;2022-12-29T18:05:25;16.00;82.30
63047;DHT22;62025;39.238;9.126;2022-12-29T18:07:54;16.00;82.30
63047;DHT22;62025;39.238;9.126;2022-12-29T18:10:23;16.00;82.10
63047;DHT22;62025;39.238;9.126;2022-12-29T18:12:52;15.90;81.90
63047;DHT22;62025;39.238;9.126;2022-12-29T18:15:26;15.90;82.00
63047;DHT22;62025;39.238;9.126;2022-12-29T18:18:13;15.90;82.10
63047;DHT22;62025;39.238;9.126;2022-12-29T18:20:44;15.80;82.10
63047;DHT22;62025;39.238;9.126;2022-12-29T18:23:29;15.80;82.10
63047;DHT22;62025;39.238;9.126;2022-12-29T18:26:05;15.80;82.30
63047;DHT22;62025;39.238;9.126;2022-12-29T18:28:32;15.80;81.90
63047;DHT22;62025;39.238;9.126;2022-12-29T18:31:00;15.80;81.80
63047;DHT22;62025;39.238;9.126;2022-12-29T18:33:27;15.80;81.60
63047;DHT22;62025;39.238;9.126;2022-12-29T18:36:04;15.70;81.50
63047;DHT22;62025;39.238;9.126;2022-12-29T18:38:30;15.80;81.40
63047;DHT22;62025;39.238;9.126;2022-12-29T18:40:57;15.70;81.20
63047;DHT22;62025;39.238;9.126;2022-12-29T18:43:24;15.70;81.00
63047;DHT22;62025;39.238;9.126;2022-12-29T18:45:50;15.60;81.10
63047;DHT22;62025;39.238;9.126;2022-12-29T18:48:18;15.60;81.00
63047;DHT22;62025;39.238;9.126;2022-12-29T18:50:45;15.70;80.90
63047;DHT22;62025;39.238;9.126;2022-12-29T18:53:19;15.70;80.70
63047;DHT22;62025;39.238;9.126;2022-12-29T18:55:48;15.70;80.70
63047;DHT22;62025;39.238;9.126;2022-12-29T18:58:15;15.60;80.50